KILN/ILN METAR and TAF weather

Enter ICAO airport designator
Station Type Date Time Source
KILN METAR 2019/12/15 16:54 UTC NOAA

KILN 151654Z AUTO 27008G15KT 10SM SCT025 01/M06 A3012 RMK AO2 SLP223 T00061056


Station Type Date Time Source
KILN Decoded METAR 2019/12/15 16:54 UTC NOAA

WILMINGTON INDUSTRIAL AIRPORT , OH, United States (KILN) 39-26N 083-47W 332M
Dec 15, 2019 - 11:54 AM EST / 2019.12.15 1654 UTC
Wind: from the W (270 degrees) at 9 MPH (8 KT) gusting to 17 MPH (15 KT):0
Visibility: 10 mile(s):0
Sky conditions: partly cloudy
Temperature: 33.1 F (0.6 C)
Windchill: 24 F (-4 C):1
Dew Point: 21.9 F (-5.6 C)
Relative Humidity: 63%
Pressure (altimeter): 30.12 in. Hg (1019 hPa)
ob: KILN 151654Z AUTO 27008G15KT 10SM SCT025 01/M06 A3012 RMK AO2 SLP223 T00061056
cycle: 17

Station Type Date Time Source
KILN TAF 2019/12/15 12:39 UTC NOAA

TAF KILN 151136Z 1512/1612 28011KT P6SM OVC020
FM151600 26006KT P6SM BKN120
FM160000 13003KT 3SM -SN SCT012 OVC040
FM160200 11004KT 1 1/2SM -SN OVC008
FM160800 08007KT 2SM -FZRASN OVC006
FM161000 07008KT 4SM BR OVC006

Example: see airport list